Millerton, CA

3:07 PM PST on February 27, 2017 (GMT -0800)
Tomales Bay Oyster Co. Cove | | Change Station

Elev 7 ft 38.12 °N, 122.85 °W | Updated 11 minutes ago

Clear
Clear
51.8 °F
Feels Like 51.8 °F
N
9.0
Wind Variable Wind from NW
Gusts 13.0 mph

Today
High -- | Low -- °F
--% Chance of Precip.
Yesterday
High -- | Low -- °F
Precip. -- in
Pressure 29.96 in
Visibility 10.0 miles
Clouds Few 4800 ft
Dew Point 41 °F
Humidity 68%
Rainfall 0.08 in
Snow Depth Not available.
6:45 AM 6:03 PM
New Moon, 2% visible
METAR KO69 272255Z AUTO 26009G15KT 10SM FEW048 12/03 A2996 RMK AO1
Pressure 29.96 in
Visibility 10.0 miles
Clouds Few 4800 ft
Dew Point 41 °F
Humidity 68%
Rainfall 0.08 in
Snow Depth Not available.
6:45 AM 6:03 PM
New Moon, 2% visible
METAR KO69 272255Z AUTO 26009G15KT 10SM FEW048 12/03 A2996 RMK AO1

Get Your Daily Forecast Email!

Thanks for signing up!

Be on the lookout for a verification email in your inbox.

You'll start receiving the daily forecast at 8 AM.

×

10-Day Weather Forecast

Almanac

Astronomy

Feb. 27, 2017 Rise Set
Actual Time
Civil Twilight
Nautical Twilight
Astronomical Twilight
Moon
Length of Visible Light
Length of Day
Tomorrow will be .
, % of the Moon is Illuminated

Today's Extremes

State Highs State Lows

Community

WunderPhotos

Upload Photos

1,962,540 photos uploaded!

WunderBlog® & News

Nearby

Air Quality

  Air Quality AQ Index Pollutant
Not available.

Snow Depth

Station Depth Elevation

Earthquake Activity

City Distance Mag. Time & Date
Minimum magnitude displayed is 2.5.

Coastal Water Temperatures

Place Temperature

Stations

Nearby Weather Stations

Station Location Temp. Windchill Dew Point Humidity Wind Precip. Elev Updated Type
                   

Watches & Warnings

There are currently no watches in effect.